Time;durP1;ratioP1;P1;durP2;ratioP2;P2;SDS_P1;SDS_P2;PMS_P1;PMS_P2;Temp;Humidity;BMP_temperature;BMP_pressure;BME280_temperature;BME280_humidity;BME280_pressure;Samples;Min_cycle;Max_cycle;Signal;HPM_P1;HPM_P2
2023/06/14 00:01:38;;;;;;;6.30;5.80;;;22.40;74.70;;;;;;4997555;28;20097;-80
2023/06/14 00:04:04;;;;;;;6.00;5.60;;;22.40;74.70;;;;;;4998113;28;20046;-80
2023/06/14 00:06:30;;;;;;;6.80;6.20;;;22.40;74.70;;;;;;5002400;28;20060;-80
2023/06/14 00:08:56;;;;;;;6.85;6.35;;;22.40;75.50;;;;;;5003082;28;20041;-80
2023/06/14 00:11:21;;;;;;;7.63;6.97;;;22.40;74.70;;;;;;5003287;28;20502;-79
2023/06/14 00:13:47;;;;;;;6.22;5.82;;;22.40;74.60;;;;;;5001018;28;20422;-79
2023/06/14 00:16:12;;;;;;;6.10;5.70;;;22.40;74.70;;;;;;4996878;28;20046;-80
2023/06/14 00:18:38;;;;;;;6.22;5.75;;;22.40;74.70;;;;;;5000939;28;20034;-79
2023/06/14 00:21:04;;;;;;;5.78;5.38;;;22.40;74.60;;;;;;4985250;28;20053;-80
2023/06/14 00:23:30;;;;;;;6.60;6.03;;;22.40;74.60;;;;;;5000764;28;20045;-80
2023/06/14 00:25:56;;;;;;;5.93;5.53;;;22.40;74.60;;;;;;5013958;28;20532;-80
2023/06/14 00:28:21;;;;;;;6.47;5.97;;;22.40;74.60;;;;;;5002977;28;20052;-80
2023/06/14 00:30:47;;;;;;;5.93;5.53;;;22.40;74.60;;;;;;5002734;28;20105;-80
2023/06/14 00:33:12;;;;;;;6.55;5.95;;;22.30;74.50;;;;;;5000668;28;20050;-80
2023/06/14 00:35:38;;;;;;;5.95;5.55;;;22.30;74.50;;;;;;5000679;28;20423;-80
2023/06/14 00:38:04;;;;;;;5.88;5.47;;;22.40;75.30;;;;;;4998423;28;20057;-80
2023/06/14 00:40:29;;;;;;;6.15;5.70;;;22.30;74.50;;;;;;4999655;28;20195;-81
2023/06/14 00:42:55;;;;;;;5.65;5.35;;;22.40;74.60;;;;;;4998587;28;20050;-79
2023/06/14 00:45:21;;;;;;;5.90;5.50;;;22.40;74.60;;;;;;4999525;28;20585;-80
2023/06/14 00:47:46;;;;;;;5.82;5.53;;;22.30;74.60;;;;;;5002460;28;20045;-79
2023/06/14 00:50:13;;;;;;;6.40;5.95;;;22.40;74.60;;;;;;5001484;28;20062;-79
2023/06/14 00:52:38;;;;;;;6.10;5.63;;;22.30;74.50;;;;;;5002103;28;20046;-79
2023/06/14 00:55:05;;;;;;;4.97;4.68;;;22.30;74.50;;;;;;4981570;28;20560;-79
2023/06/14 00:57:31;;;;;;;5.28;4.97;;;22.30;74.50;;;;;;4998624;28;20073;-80
2023/06/14 00:59:56;;;;;;;5.50;5.15;;;22.30;74.40;;;;;;4997710;28;20647;-79
2023/06/14 01:02:22;;;;;;;5.68;5.38;;;22.30;74.40;;;;;;4995328;28;20053;-80
2023/06/14 01:04:48;;;;;;;5.95;5.55;;;22.40;74.50;;;;;;5004113;28;20048;-80
2023/06/14 01:07:45;;;;;;;5.68;5.30;;;22.40;74.50;;;;;;4995624;28;20103;-79
2023/06/14 01:10:22;;;;;;;5.50;5.20;;;22.30;74.40;;;;;;4994777;28;20063;-80
2023/06/14 01:12:53;;;;;;;4.88;4.57;;;22.30;74.40;;;;;;4997143;28;20042;-79
2023/06/14 01:15:18;;;;;;;5.68;5.28;;;22.30;74.40;;;;;;5001715;28;21616;-80
2023/06/14 01:17:46;;;;;;;5.25;4.95;;;22.30;74.40;;;;;;5005282;28;20129;-79
2023/06/14 01:20:14;;;;;;;5.35;4.95;;;22.30;75.20;;;;;;5002356;28;20510;-79
2023/06/14 01:22:54;;;;;;;5.10;4.80;;;22.30;74.40;;;;;;5003498;28;20108;-79
2023/06/14 01:25:22;;;;;;;5.38;5.07;;;22.30;74.50;;;;;;5004042;28;20049;-80
2023/06/14 01:27:49;;;;;;;5.30;5.00;;;22.30;74.40;;;;;;5002472;28;20053;-79
2023/06/14 01:30:15;;;;;;;5.47;5.07;;;22.30;74.40;;;;;;5003228;28;20048;-80
2023/06/14 01:32:41;;;;;;;5.20;4.90;;;22.40;74.60;;;;;;5006093;28;20026;-80
2023/06/14 01:35:06;;;;;;;5.68;5.32;;;22.30;74.50;;;;;;5001407;28;20700;-80
2023/06/14 01:37:32;;;;;;;5.65;5.35;;;22.30;74.50;;;;;;4999237;28;20048;-80
2023/06/14 01:39:58;;;;;;;5.30;5.00;;;22.30;74.60;;;;;;5001835;28;20038;-80
2023/06/14 01:42:24;;;;;;;4.97;4.68;;;22.30;74.60;;;;;;4999327;28;20447;-81
2023/06/14 01:44:50;;;;;;;5.15;4.85;;;22.30;74.50;;;;;;5004005;28;20055;-80
2023/06/14 01:47:16;;;;;;;4.70;4.25;;;22.30;74.60;;;;;;4986758;28;20050;-80
2023/06/14 01:49:41;;;;;;;5.28;4.97;;;22.30;74.50;;;;;;5001040;28;20058;-80
2023/06/14 01:52:09;;;;;;;5.55;5.25;;;22.30;74.50;;;;;;5003424;28;20392;-81
2023/06/14 01:54:37;;;;;;;4.90;4.70;;;22.30;74.50;;;;;;5002777;28;20030;-81
2023/06/14 01:57:03;;;;;;;5.32;5.07;;;22.30;74.50;;;;;;5001803;28;20062;-81
2023/06/14 01:59:31;;;;;;;4.88;4.63;;;22.30;74.50;;;;;;5004968;28;20091;-80
2023/06/14 02:01:56;;;;;;;4.68;4.38;;;22.30;74.40;;;;;;5000554;28;20037;-80
2023/06/14 02:04:22;;;;;;;4.57;4.28;;;22.30;74.40;;;;;;5005432;28;20088;-81
2023/06/14 02:06:47;;;;;;;4.60;4.40;;;22.30;74.40;;;;;;5001341;28;20042;-80
2023/06/14 02:09:13;;;;;;;4.32;4.13;;;22.30;74.40;;;;;;5001035;28;20057;-81
2023/06/14 02:11:39;;;;;;;5.10;4.70;;;22.30;74.40;;;;;;5004106;28;20062;-81
2023/06/14 02:14:06;;;;;;;4.60;4.40;;;22.30;74.40;;;;;;5001644;28;20049;-80
2023/06/14 02:16:35;;;;;;;4.80;4.50;;;22.30;74.40;;;;;;5004205;28;20411;-81
2023/06/14 02:19:01;;;;;;;5.00;4.70;;;22.30;74.40;;;;;;5001891;28;20034;-80
2023/06/14 02:21:26;;;;;;;4.82;4.53;;;22.30;74.40;;;;;;5004986;28;20038;-80
2023/06/14 02:23:52;;;;;;;4.22;4.03;;;22.30;74.40;;;;;;5016494;28;20087;-80
2023/06/14 02:26:17;;;;;;;4.60;4.40;;;22.30;74.30;;;;;;5004060;28;20077;-81
2023/06/14 02:28:43;;;;;;;4.18;3.97;;;22.30;74.30;;;;;;5016110;28;20038;-80
2023/06/14 02:31:08;;;;;;;3.80;3.60;;;22.30;74.30;;;;;;5000082;28;20084;-80
2023/06/14 02:33:34;;;;;;;3.92;3.72;;;22.30;74.30;;;;;;5001434;28;20558;-82
2023/06/14 02:36:02;;;;;;;4.30;4.10;;;22.30;74.30;;;;;;5000935;28;20060;-80
2023/06/14 02:38:28;;;;;;;4.30;4.03;;;22.30;74.30;;;;;;5002754;28;20041;-81
2023/06/14 02:40:53;;;;;;;4.13;3.92;;;22.30;74.30;;;;;;4986822;28;20119;-80
2023/06/14 02:43:19;;;;;;;4.25;4.05;;;22.30;74.30;;;;;;5000311;28;20514;-80
2023/06/14 02:45:45;;;;;;;4.22;4.03;;;22.30;74.30;;;;;;5002151;28;20582;-80
2023/06/14 02:48:11;;;;;;;3.97;3.78;;;22.20;74.90;;;;;;5003057;28;20046;-81
2023/06/14 02:50:36;;;;;;;3.83;3.63;;;22.30;74.10;;;;;;5004514;28;20470;-80
2023/06/14 02:53:03;;;;;;;4.20;4.00;;;22.30;74.10;;;;;;5003555;28;20049;-80
2023/06/14 02:55:29;;;;;;;4.03;3.83;;;22.20;74.00;;;;;;5003607;28;20050;-80
2023/06/14 02:57:54;;;;;;;4.43;4.22;;;22.30;74.00;;;;;;5002189;28;20419;-80
2023/06/14 03:00:20;;;;;;;4.28;4.07;;;22.20;74.00;;;;;;5015679;28;20043;-80
2023/06/14 03:02:46;;;;;;;3.88;3.67;;;22.30;74.00;;;;;;5003455;28;20295;-79
2023/06/14 03:05:12;;;;;;;3.85;3.65;;;22.20;73.90;;;;;;5001553;28;20045;-80
2023/06/14 03:07:44;;;;;;;3.95;3.75;;;22.20;73.90;;;;;;5002842;28;20050;-80
2023/06/14 03:10:12;;;;;;;3.85;3.65;;;22.20;73.80;;;;;;4998550;28;20042;-79
2023/06/14 03:12:38;;;;;;;3.88;3.67;;;22.20;73.80;;;;;;5002412;28;20073;-80
2023/06/14 03:15:04;;;;;;;3.53;3.33;;;22.20;73.70;;;;;;5002779;28;20141;-81
2023/06/14 03:17:33;;;;;;;3.72;3.53;;;22.30;73.80;;;;;;5003900;28;20058;-80
2023/06/14 03:20:02;;;;;;;3.80;3.60;;;22.20;73.80;;;;;;4998180;28;20034;-79
2023/06/14 03:22:28;;;;;;;3.85;3.65;;;22.20;73.70;;;;;;5001874;28;20046;-80
2023/06/14 03:24:54;;;;;;;3.42;3.22;;;22.30;73.70;;;;;;5003791;28;20037;-79
2023/06/14 03:27:20;;;;;;;3.47;3.28;;;22.30;73.70;;;;;;5006415;28;20081;-80
2023/06/14 03:29:46;;;;;;;3.75;3.55;;;22.30;73.70;;;;;;5007426;28;20517;-78
2023/06/14 03:32:11;;;;;;;3.40;3.30;;;22.20;73.60;;;;;;5008367;28;20049;-80
2023/06/14 03:34:38;;;;;;;4.10;3.90;;;22.20;73.60;;;;;;5005486;28;20045;-80
2023/06/14 03:37:04;;;;;;;3.78;3.47;;;22.20;73.60;;;;;;5007752;28;20052;-79
2023/06/14 03:39:30;;;;;;;3.60;3.40;;;22.30;73.70;;;;;;5004031;28;20531;-80
2023/06/14 03:41:55;;;;;;;3.88;3.67;;;22.20;73.70;;;;;;5005358;28;20132;-79
2023/06/14 03:44:21;;;;;;;3.90;3.70;;;22.20;73.70;;;;;;5006275;28;20121;-80
2023/06/14 03:46:47;;;;;;;3.90;3.70;;;22.20;73.80;;;;;;5002803;28;20100;-79
2023/06/14 03:49:12;;;;;;;4.22;4.03;;;22.20;73.90;;;;;;4989161;28;20054;-81
2023/06/14 03:51:39;;;;;;;3.80;3.60;;;22.20;73.90;;;;;;5003292;28;20051;-81
2023/06/14 03:54:05;;;;;;;3.58;3.38;;;22.20;74.00;;;;;;5004599;28;20080;-80
2023/06/14 03:56:31;;;;;;;3.58;3.28;;;22.30;74.10;;;;;;5011750;28;20074;-80
2023/06/14 03:58:56;;;;;;;3.95;3.75;;;22.20;74.00;;;;;;5003966;28;20041;-80
2023/06/14 04:01:27;;;;;;;4.05;3.85;;;22.20;73.90;;;;;;5003304;28;20049;-80
2023/06/14 04:03:52;;;;;;;3.72;3.53;;;22.20;73.90;;;;;;5001509;28;20525;-79
2023/06/14 04:06:19;;;;;;;3.95;3.75;;;22.20;73.90;;;;;;5007568;28;20508;-80
2023/06/14 04:08:45;;;;;;;3.50;3.30;;;22.20;73.90;;;;;;5022263;28;20045;-80
2023/06/14 04:11:11;;;;;;;3.55;3.35;;;22.20;74.00;;;;;;5002519;28;20503;-79
2023/06/14 04:13:37;;;;;;;3.13;3.00;;;22.20;73.90;;;;;;5003336;28;20049;-80
2023/06/14 04:16:03;;;;;;;3.88;3.67;;;22.20;73.90;;;;;;5003221;28;20688;-80
2023/06/14 04:18:29;;;;;;;3.30;3.20;;;22.20;73.90;;;;;;5004808;28;20057;-81
2023/06/14 04:20:56;;;;;;;3.38;3.28;;;22.20;73.80;;;;;;5004961;28;20522;-79
2023/06/14 04:23:22;;;;;;;3.50;3.30;;;22.20;73.80;;;;;;5014723;28;20042;-80
2023/06/14 04:25:49;;;;;;;8.43;7.63;;;22.20;73.80;;;;;;5002870;28;20053;-79
2023/06/14 04:28:15;;;;;;;21.00;18.25;;;22.20;71.80;;;;;;5002693;28;20403;-78
2023/06/14 04:30:41;;;;;;;24.75;21.08;;;21.40;69.40;;;;;;5002675;28;20088;-78
2023/06/14 04:33:07;;;;;;;27.08;21.05;;;20.50;71.60;;;;;;5003614;28;20691;-78
2023/06/14 04:35:35;;;;;;;24.48;21.65;;;19.80;73.90;;;;;;5007191;28;20131;-78
2023/06/14 04:38:01;;;;;;;25.95;21.60;;;19.60;75.30;;;;;;5002489;28;20038;-77
2023/06/14 04:40:27;;;;;;;29.30;22.65;;;19.50;75.40;;;;;;5004803;28;20044;-78
2023/06/14 04:42:54;;;;;;;25.55;20.60;;;19.50;75.50;;;;;;5004622;28;20045;-77
2023/06/14 04:45:19;;;;;;;29.05;24.15;;;19.40;76.10;;;;;;5005158;28;20048;-77
2023/06/14 04:47:46;;;;;;;29.00;23.52;;;19.10;76.70;;;;;;5003858;28;20053;-78
2023/06/14 04:50:12;;;;;;;28.80;22.73;;;19.00;78.10;;;;;;5000730;28;20057;-78
2023/06/14 04:52:38;;;;;;;30.83;24.42;;;18.80;78.40;;;;;;5004689;28;20041;-78
2023/06/14 04:55:04;;;;;;;25.52;22.42;;;18.70;79.30;;;;;;5004311;28;20041;-77
2023/06/14 04:57:30;;;;;;;27.08;22.88;;;18.70;79.10;;;;;;5002240;28;20050;-77
2023/06/14 04:59:57;;;;;;;27.55;20.73;;;18.60;79.90;;;;;;5003438;28;20515;-79
2023/06/14 05:02:23;;;;;;;27.98;21.75;;;18.50;79.90;;;;;;5005010;28;20049;-78
2023/06/14 05:04:49;;;;;;;28.77;21.25;;;18.50;80.10;;;;;;4988915;28;20050;-79
2023/06/14 05:07:15;;;;;;;26.42;19.88;;;18.40;80.60;;;;;;5004003;28;20543;-79
2023/06/14 05:09:40;;;;;;;23.83;19.77;;;18.50;80.50;;;;;;5003983;28;20046;-78
2023/06/14 05:12:09;;;;;;;24.90;20.58;;;18.40;80.20;;;;;;5002035;28;20499;-76
2023/06/14 05:14:35;;;;;;;29.35;21.98;;;18.40;80.30;;;;;;5002017;28;20042;-76
2023/06/14 05:17:02;;;;;;;30.17;21.00;;;18.40;80.20;;;;;;5002068;28;20187;-76
2023/06/14 05:19:28;;;;;;;27.98;20.75;;;18.50;80.10;;;;;;5004368;28;20045;-79
2023/06/14 05:21:53;;;;;;;25.70;19.42;;;18.50;80.30;;;;;;5005337;28;20068;-78
2023/06/14 05:24:19;;;;;;;25.52;19.50;;;18.50;80.50;;;;;;5005094;28;20555;-78
2023/06/14 05:26:45;;;;;;;25.73;20.65;;;18.50;80.30;;;;;;5007908;28;20054;-80
2023/06/14 05:29:11;;;;;;;21.30;18.92;;;18.50;80.70;;;;;;5003311;28;20053;-79
2023/06/14 05:31:36;;;;;;;20.15;16.35;;;18.90;79.60;;;;;;5004150;28;20044;-79
2023/06/14 05:34:02;;;;;;;18.73;16.15;;;19.30;78.00;;;;;;5003094;28;20046;-79
2023/06/14 05:36:27;;;;;;;18.08;15.88;;;19.90;76.10;;;;;;5004383;28;20042;-79
2023/06/14 05:38:57;;;;;;;18.70;14.15;;;20.10;74.70;;;;;;5005108;28;20121;-78
2023/06/14 05:41:27;;;;;;;14.57;13.15;;;20.20;74.40;;;;;;5005976;28;20164;-80
2023/06/14 05:43:54;;;;;;;17.75;14.27;;;20.10;74.30;;;;;;4649299;28;10000166;-81
2023/06/14 05:46:22;;;;;;;16.58;14.75;;;20.20;74.40;;;;;;4993830;28;20058;-80
2023/06/14 05:48:48;;;;;;;16.40;14.18;;;20.20;74.20;;;;;;4997554;28;20043;-80
2023/06/14 05:51:14;;;;;;;15.52;13.88;;;20.30;73.90;;;;;;4999821;28;20099;-79
2023/06/14 05:53:40;;;;;;;17.92;13.45;;;20.30;73.70;;;;;;4998747;28;20458;-79
2023/06/14 05:56:05;;;;;;;14.35;12.88;;;20.40;73.80;;;;;;4998582;28;20053;-80
2023/06/14 05:58:31;;;;;;;14.32;12.82;;;20.50;73.40;;;;;;4996228;28;20041;-81
2023/06/14 06:00:57;;;;;;;17.15;13.65;;;20.50;73.40;;;;;;4996484;28;20050;-81
2023/06/14 06:03:23;;;;;;;14.50;12.40;;;20.50;73.50;;;;;;4997272;28;20042;-81
2023/06/14 06:05:48;;;;;;;13.73;12.40;;;20.50;73.50;;;;;;5001429;28;20057;-81
2023/06/14 06:08:14;;;;;;;13.63;11.88;;;20.50;73.60;;;;;;5000416;28;20531;-81
2023/06/14 06:10:39;;;;;;;12.70;11.27;;;20.60;73.40;;;;;;5000211;28;20067;-81
2023/06/14 06:13:05;;;;;;;13.40;11.35;;;20.60;73.20;;;;;;4995800;28;20046;-80
2023/06/14 06:15:31;;;;;;;12.45;11.38;;;20.70;73.00;;;;;;4999188;28;20034;-81
2023/06/14 06:17:56;;;;;;;12.23;10.85;;;20.70;73.20;;;;;;5000072;28;20045;-79
2023/06/14 06:20:27;;;;;;;11.75;10.55;;;20.70;73.20;;;;;;5002787;28;20044;-81
2023/06/14 06:22:53;;;;;;;12.63;10.98;;;20.70;73.20;;;;;;5002191;28;20037;-81
2023/06/14 06:25:19;;;;;;;11.55;10.43;;;20.70;73.10;;;;;;4998218;28;20034;-81
2023/06/14 06:27:44;;;;;;;11.43;10.23;;;20.70;73.10;;;;;;4999389;28;20579;-81
2023/06/14 06:30:11;;;;;;;11.60;10.48;;;20.80;73.10;;;;;;4999687;28;20565;-81
2023/06/14 06:32:36;;;;;;;12.48;11.02;;;20.80;73.00;;;;;;5001932;28;20503;-81
2023/06/14 06:35:03;;;;;;;11.73;10.60;;;20.80;73.10;;;;;;4998627;28;20052;-81
2023/06/14 06:37:28;;;;;;;10.25;9.20;;;20.80;72.90;;;;;;4996754;28;20043;-81
2023/06/14 06:39:54;;;;;;;11.15;9.88;;;20.90;73.00;;;;;;4999349;28;20099;-81
2023/06/14 06:42:19;;;;;;;11.02;9.98;;;20.90;73.00;;;;;;4999506;28;20125;-81
2023/06/14 06:44:45;;;;;;;10.20;9.23;;;20.90;72.90;;;;;;5001580;28;20488;-81
2023/06/14 06:47:11;;;;;;;10.60;9.40;;;20.90;73.00;;;;;;4983404;28;20129;-80
2023/06/14 06:49:36;;;;;;;10.07;9.07;;;20.90;73.00;;;;;;5001013;28;20035;-82
2023/06/14 06:52:03;;;;;;;10.13;9.23;;;21.00;73.30;;;;;;4999363;28;20056;-82
2023/06/14 06:54:29;;;;;;;9.77;8.88;;;21.00;73.10;;;;;;5002779;28;20073;-82
2023/06/14 06:56:54;;;;;;;9.38;8.48;;;21.00;73.20;;;;;;5002051;28;20479;-81
2023/06/14 06:59:20;;;;;;;9.50;8.65;;;21.00;73.10;;;;;;5004801;28;20058;-82
2023/06/14 07:01:46;;;;;;;9.10;8.15;;;21.00;73.10;;;;;;4988923;28;20049;-82
2023/06/14 07:04:12;;;;;;;10.00;8.43;;;21.10;73.00;;;;;;5003407;28;20500;-81
2023/06/14 07:06:38;;;;;;;9.02;8.13;;;21.10;73.00;;;;;;4987224;28;20125;-83
2023/06/14 07:09:05;;;;;;;8.00;7.40;;;21.10;73.70;;;;;;4999622;28;20124;-82
2023/06/14 07:11:30;;;;;;;8.25;7.55;;;21.10;72.90;;;;;;5005035;28;20053;-83
2023/06/14 07:13:56;;;;;;;9.57;8.77;;;21.10;72.90;;;;;;5005108;28;20045;-83
2023/06/14 07:16:21;;;;;;;8.68;7.85;;;21.10;72.90;;;;;;5001596;28;20096;-83
2023/06/14 07:18:48;;;;;;;7.72;7.13;;;21.20;73.00;;;;;;5000598;28;20038;-81
2023/06/14 07:21:13;;;;;;;8.63;7.80;;;21.20;73.00;;;;;;5002996;28;20037;-81
2023/06/14 07:23:39;;;;;;;8.15;7.53;;;21.20;73.30;;;;;;5005496;28;20057;-82
2023/06/14 07:26:04;;;;;;;8.18;7.53;;;21.20;72.90;;;;;;4984328;28;20153;-83
2023/06/14 07:28:30;;;;;;;6.75;6.25;;;21.20;73.70;;;;;;5002612;28;20045;-82
2023/06/14 07:30:56;;;;;;;7.68;7.07;;;21.20;73.00;;;;;;5000500;28;20042;-82
2023/06/14 07:33:21;;;;;;;7.38;6.88;;;21.30;73.10;;;;;;4981432;28;20419;-81
2023/06/14 07:35:47;;;;;;;7.45;6.60;;;21.30;72.80;;;;;;4998808;28;20046;-81
2023/06/14 07:38:13;;;;;;;7.63;6.88;;;21.30;72.90;;;;;;4985758;28;20049;-82
2023/06/14 07:40:39;;;;;;;7.85;7.05;;;21.30;72.80;;;;;;5002261;28;20034;-82
2023/06/14 07:43:04;;;;;;;6.50;5.90;;;21.30;72.70;;;;;;5002100;28;20045;-82
2023/06/14 07:45:30;;;;;;;7.55;6.85;;;21.30;72.70;;;;;;5003505;28;20113;-81
2023/06/14 07:47:56;;;;;;;7.78;7.15;;;21.30;72.80;;;;;;5002187;28;20172;-81
2023/06/14 07:50:22;;;;;;;6.63;6.13;;;21.40;72.70;;;;;;5002470;28;20140;-81
2023/06/14 07:52:48;;;;;;;7.47;6.82;;;21.40;72.60;;;;;;5005105;28;20132;-81
2023/06/14 07:55:15;;;;;;;6.18;5.78;;;21.40;72.70;;;;;;5000898;28;20141;-83
2023/06/14 07:57:40;;;;;;;6.25;5.85;;;21.40;72.60;;;;;;4997028;28;20050;-83
2023/06/14 08:00:06;;;;;;;6.18;5.65;;;21.40;72.70;;;;;;4998376;28;20174;-83
2023/06/14 08:02:32;;;;;;;6.45;5.85;;;21.40;72.70;;;;;;5003673;28;20443;-82
2023/06/14 08:04:58;;;;;;;5.75;5.35;;;21.40;72.90;;;;;;5002784;28;20065;-82
2023/06/14 08:07:24;;;;;;;5.20;4.80;;;21.40;72.80;;;;;;5000222;28;20699;-83
2023/06/14 08:09:49;;;;;;;5.40;5.00;;;21.50;73.20;;;;;;4999824;28;20129;-83
2023/06/14 08:12:15;;;;;;;4.93;4.57;;;21.50;73.00;;;;;;4998711;28;20423;-82
2023/06/14 08:14:42;;;;;;;4.70;4.40;;;21.50;73.90;;;;;;5004963;28;20100;-85
2023/06/14 08:17:07;;;;;;;5.35;4.85;;;21.50;72.80;;;;;;5000460;28;22443;-84
2023/06/14 08:19:34;;;;;;;5.13;4.72;;;21.60;73.10;;;;;;5000666;28;20065;-82
2023/06/14 08:22:00;;;;;;;4.07;3.85;;;21.60;73.20;;;;;;5005052;28;20046;-83
2023/06/14 08:24:26;;;;;;;4.70;4.40;;;21.60;73.10;;;;;;5004547;28;20057;-83
2023/06/14 08:26:53;;;;;;;4.60;4.30;;;21.60;73.10;;;;;;5016037;28;20070;-83
2023/06/14 08:29:19;;;;;;;4.47;4.07;;;21.60;73.10;;;;;;5019516;28;20049;-80
2023/06/14 08:31:45;;;;;;;4.22;4.03;;;21.60;73.10;;;;;;4988175;28;20045;-82
2023/06/14 08:34:10;;;;;;;4.10;3.75;;;21.70;73.20;;;;;;4998030;28;20056;-82
2023/06/14 08:36:36;;;;;;;4.50;4.10;;;21.60;73.00;;;;;;5003826;28;20580;-82
2023/06/14 08:39:02;;;;;;;4.05;3.75;;;21.70;73.10;;;;;;5005990;28;20065;-84
2023/06/14 08:41:29;;;;;;;4.47;4.18;;;21.70;73.10;;;;;;5005160;28;20042;-82
2023/06/14 08:43:55;;;;;;;3.78;3.58;;;21.70;73.10;;;;;;4986014;28;20058;-84
2023/06/14 08:46:22;;;;;;;3.85;3.65;;;21.70;73.00;;;;;;5003716;28;20042;-83
2023/06/14 08:48:52;;;;;;;4.03;3.83;;;21.80;73.90;;;;;;5021568;28;20038;-83
2023/06/14 08:51:19;;;;;;;4.32;4.05;;;21.80;73.90;;;;;;5004818;28;20077;-83
2023/06/14 08:53:45;;;;;;;4.63;4.22;;;21.80;73.00;;;;;;5006883;28;20523;-84
2023/06/14 08:56:13;;;;;;;4.22;3.92;;;21.80;73.00;;;;;;5001955;28;20061;-83
2023/06/14 08:58:45;;;;;;;4.20;3.90;;;21.80;72.90;;;;;;5002631;28;20026;-84
2023/06/14 09:01:14;;;;;;;3.90;3.63;;;21.80;72.80;;;;;;5001493;28;20062;-84
2023/06/14 09:03:41;;;;;;;4.00;3.80;;;21.80;72.80;;;;;;5003626;28;20500;-83
2023/06/14 09:06:08;;;;;;;4.03;3.72;;;21.90;72.70;;;;;;5001975;28;20131;-82
2023/06/14 09:08:35;;;;;;;3.47;3.25;;;21.90;72.70;;;;;;5021823;28;20042;-83
2023/06/14 09:11:01;;;;;;;3.40;3.20;;;21.90;72.70;;;;;;5004367;28;20040;-82
2023/06/14 09:13:27;;;;;;;3.30;3.10;;;21.90;72.90;;;;;;4999404;28;20057;-83
2023/06/14 09:15:52;;;;;;;3.13;2.97;;;21.90;72.80;;;;;;5000974;28;20046;-84
2023/06/14 09:18:20;;;;;;;3.30;3.17;;;21.90;72.90;;;;;;5006984;28;20038;-80
2023/06/14 09:20:47;;;;;;;3.60;3.40;;;21.90;72.70;;;;;;5019552;28;20096;-80
2023/06/14 09:23:13;;;;;;;3.17;3.05;;;21.90;72.60;;;;;;4988678;28;20046;-80
2023/06/14 09:25:43;;;;;;;3.15;2.95;;;21.90;72.40;;;;;;5002300;28;20046;-81
2023/06/14 09:28:09;;;;;;;3.17;2.97;;;21.90;72.30;;;;;;5004325;28;20415;-80
2023/06/14 09:30:38;;;;;;;3.63;3.42;;;21.90;72.60;;;;;;4982645;28;20038;-83
2023/06/14 09:33:04;;;;;;;3.20;3.00;;;22.00;72.10;;;;;;5013879;28;20033;-86
2023/06/14 09:35:31;;;;;;;3.00;2.80;;;22.00;72.20;;;;;;5004673;28;20072;-82
2023/06/14 09:37:57;;;;;;;3.42;3.13;;;22.00;72.30;;;;;;5004493;28;20049;-84
2023/06/14 09:40:23;;;;;;;3.80;3.60;;;22.00;72.40;;;;;;5000304;28;20050;-84
2023/06/14 09:42:49;;;;;;;3.25;3.05;;;22.00;72.50;;;;;;5002009;28;20034;-84
2023/06/14 09:45:19;;;;;;;3.58;3.40;;;22.00;72.50;;;;;;4986434;28;20057;-83
2023/06/14 09:47:45;;;;;;;3.25;3.05;;;22.00;72.70;;;;;;5005037;28;20057;-86
2023/06/14 09:50:10;;;;;;;3.50;3.30;;;22.00;72.70;;;;;;5006327;28;20050;-83
2023/06/14 09:52:36;;;;;;;2.92;2.83;;;22.00;72.60;;;;;;5004735;28;20046;-82
2023/06/14 09:55:01;;;;;;;3.40;3.20;;;22.10;72.40;;;;;;4984084;28;20057;-82
2023/06/14 09:57:29;;;;;;;3.30;3.20;;;22.00;72.40;;;;;;5018121;28;20090;-84
2023/06/14 09:59:58;;;;;;;4.00;3.80;;;22.10;72.30;;;;;;4987944;28;20052;-83
2023/06/14 10:02:25;;;;;;;3.40;3.20;;;22.10;72.10;;;;;;5018176;28;20042;-82
2023/06/14 10:05:00;;;;;;;4.93;4.45;;;22.10;72.50;;;;;;5017924;28;20476;-81
2023/06/14 10:07:26;;;;;;;4.28;3.97;;;22.10;73.10;;;;;;4999158;28;20054;-82
2023/06/14 10:09:53;;;;;;;3.85;3.65;;;22.10;73.00;;;;;;4987929;28;20096;-84
2023/06/14 10:12:20;;;;;;;3.80;3.40;;;22.10;73.00;;;;;;5000941;28;20062;-84
2023/06/14 10:14:50;;;;;;;4.32;3.72;;;22.10;73.40;;;;;;5005589;28;20042;-85
2023/06/14 10:17:48;;;;;;;3.85;3.60;;;22.10;73.30;;;;;;4999986;28;20076;-82
2023/06/14 10:20:19;;;;;;;3.83;3.63;;;22.10;73.40;;;;;;4999496;28;20033;-83
2023/06/14 10:22:50;;;;;;;4.35;4.05;;;22.20;73.50;;;;;;5003481;28;20042;-83
2023/06/14 10:25:29;;;;;;;4.35;4.00;;;22.20;73.40;;;;;;5003136;28;20045;-85
2023/06/14 10:28:19;;;;;;;3.75;3.45;;;22.20;73.60;;;;;;4995241;28;20539;-80
2023/06/14 10:31:10;;;;;;;3.50;3.30;;;22.30;73.20;;;;;;5003625;28;20122;-82
2023/06/14 10:33:48;;;;;;;3.47;3.28;;;22.30;73.90;;;;;;5000980;28;20056;-82
2023/06/14 10:36:22;;;;;;;4.32;3.90;;;22.40;75.70;;;;;;5016042;28;20046;-79
2023/06/14 10:38:58;;;;;;;3.95;3.60;;;22.40;75.00;;;;;;4652797;28;9999623;-82
2023/06/14 10:41:28;;;;;;;3.72;3.05;;;22.50;74.20;;;;;;5005839;28;20285;-82
2023/06/14 10:44:14;;;;;;;4.15;3.85;;;22.50;74.30;;;;;;4982250;28;20046;-83
2023/06/14 10:46:40;;;;;;;3.05;2.85;;;22.50;74.10;;;;;;4970566;28;20115;-83
2023/06/14 10:49:06;;;;;;;3.33;3.13;;;22.50;74.00;;;;;;4985130;28;20053;-83
2023/06/14 10:51:46;;;;;;;3.17;2.97;;;22.50;74.10;;;;;;4984408;28;20042;-85
2023/06/14 10:54:21;;;;;;;3.42;3.22;;;22.50;74.90;;;;;;5013898;28;20095;-82
2023/06/14 10:56:48;;;;;;;3.65;3.45;;;22.60;74.10;;;;;;5001017;28;20085;-84
2023/06/14 10:59:13;;;;;;;3.72;3.53;;;22.50;74.30;;;;;;4999281;28;20590;-84
2023/06/14 11:01:57;;;;;;;4.25;3.47;;;22.60;74.40;;;;;;4992765;28;20125;-86
2023/06/14 11:04:24;;;;;;;3.45;2.92;;;22.60;74.50;;;;;;4997016;28;20033;-85
2023/06/14 11:06:52;;;;;;;3.65;3.45;;;22.60;74.60;;;;;;4998935;28;20065;-81
2023/06/14 11:09:32;;;;;;;3.38;3.17;;;22.60;74.90;;;;;;4998150;28;20049;-81
2023/06/14 11:11:57;;;;;;;3.58;3.35;;;22.60;74.80;;;;;;5000136;28;20038;-81
2023/06/14 11:14:23;;;;;;;3.70;3.50;;;22.70;74.50;;;;;;5015424;28;20046;-81
2023/06/14 11:17:11;;;;;;;3.42;3.22;;;22.70;74.80;;;;;;4996836;28;20050;-81
2023/06/14 11:19:36;;;;;;;3.30;3.00;;;22.70;74.50;;;;;;4947527;28;20427;-81
2023/06/14 11:22:02;;;;;;;4.10;3.85;;;22.70;74.20;;;;;;5006400;28;20738;-76
2023/06/14 11:24:28;;;;;;;4.05;3.65;;;22.70;74.30;;;;;;4991929;28;20046;-76
2023/06/14 11:26:53;;;;;;;3.60;3.40;;;22.70;74.70;;;;;;5004878;28;20129;-79
2023/06/14 11:29:20;;;;;;;3.92;3.65;;;22.60;75.10;;;;;;4997971;28;20052;-77
2023/06/14 11:31:45;;;;;;;3.20;3.00;;;22.60;76.00;;;;;;5000708;28;20033;-78
2023/06/14 11:34:11;;;;;;;3.45;3.20;;;22.60;76.90;;;;;;5010170;28;20034;-79
2023/06/14 11:36:37;;;;;;;3.38;3.10;;;22.60;76.70;;;;;;5001535;28;20092;-76
2023/06/14 11:39:06;;;;;;;3.75;3.55;;;22.70;76.10;;;;;;4986172;28;20026;-76
2023/06/14 11:41:39;;;;;;;3.47;3.28;;;22.70;76.10;;;;;;5015480;28;21317;-77
2023/06/14 11:44:05;;;;;;;4.15;3.53;;;22.70;75.90;;;;;;5000628;28;20081;-75
2023/06/14 11:46:31;;;;;;;3.38;3.15;;;22.70;75.90;;;;;;4998288;28;20664;-76
2023/06/14 11:48:57;;;;;;;3.20;3.00;;;22.70;75.80;;;;;;5003233;28;20543;-78
2023/06/14 11:51:23;;;;;;;4.15;3.75;;;22.70;75.70;;;;;;5003819;28;20026;-76
2023/06/14 11:53:49;;;;;;;4.53;2.80;;;22.70;75.40;;;;;;5004949;28;20518;-77
2023/06/14 11:56:15;;;;;;;4.22;3.38;;;22.70;75.30;;;;;;5004588;28;20050;-77
2023/06/14 11:58:42;;;;;;;3.75;3.45;;;22.70;74.90;;;;;;5001102;28;20412;-77
2023/06/14 12:01:07;;;;;;;3.85;3.58;;;22.70;74.90;;;;;;5007420;28;20037;-77
2023/06/14 12:03:33;;;;;;;3.47;3.38;;;22.70;74.70;;;;;;5008400;28;20034;-75
2023/06/14 12:06:08;;;;;;;3.58;3.38;;;22.70;74.60;;;;;;5004275;28;20083;-76
2023/06/14 12:08:40;;;;;;;3.40;3.28;;;22.70;74.60;;;;;;5007800;28;20042;-76
2023/06/14 12:11:08;;;;;;;3.60;3.40;;;22.70;74.50;;;;;;5004753;28;20041;-76
2023/06/14 12:13:34;;;;;;;3.20;2.85;;;22.70;74.20;;;;;;4989201;28;20096;-76
2023/06/14 12:16:00;;;;;;;3.22;3.03;;;22.70;74.20;;;;;;5003326;28;20026;-76
2023/06/14 12:18:34;;;;;;;3.35;3.15;;;22.70;74.10;;;;;;5015737;28;20042;-76
2023/06/14 12:21:03;;;;;;;3.22;3.13;;;22.70;74.20;;;;;;5004115;28;20030;-76
2023/06/14 12:23:49;;;;;;;3.55;3.20;;;22.70;74.10;;;;;;5020107;28;20053;-76
2023/06/14 12:26:19;;;;;;;3.30;3.10;;;22.70;74.00;;;;;;5001880;28;20169;-77
2023/06/14 12:28:45;;;;;;;3.40;3.20;;;22.70;73.90;;;;;;4996432;28;20128;-76
2023/06/14 12:31:12;;;;;;;5.22;3.33;;;22.70;73.80;;;;;;5001181;28;20070;-76
2023/06/14 12:33:38;;;;;;;3.63;3.42;;;22.70;73.80;;;;;;5015565;28;20297;-77
2023/06/14 12:36:05;;;;;;;3.97;3.28;;;22.80;73.80;;;;;;5004344;28;20088;-77
2023/06/14 12:38:32;;;;;;;2.92;2.80;;;22.70;73.70;;;;;;5006109;28;20034;-78
2023/06/14 12:40:57;;;;;;;2.88;2.78;;;22.80;73.70;;;;;;5002400;28;20033;-77
2023/06/14 12:43:23;;;;;;;3.42;3.22;;;22.80;73.70;;;;;;5004948;28;20032;-78